Pershing, Indiana
Current Conditions -  °F | °C
As of 10:53 PM on Sunday 23 Nov 2014 (Local Time) from KMIE Reporting Station
Light Rain Light Rain  
Wind Chill: 13°   Ceiling: 1000
Heat Index: 13°   Visibility: 3mi
Dew Point: 12°   Wind: 17mph
Humidity: 93%   Direction: 180°S
Pressure: 29.19"   Gusts: 26mph
Location:  39.83°N, 85.13°W
Report Text: KMIE 240353Z AUTO 18015G23KT 3SM -RA BR OVC010 13/12 A2919 RMK AO2 RAE34B51 CIG 008V013 SLP878 P0001 T01330122
Loading
Personal Weather Stations






























Interactive Weather Map New forecast layout! Learn more

10-Day Weather Forecast

Advertisements
Track Severe Weather on mobile